createdAt,value
2018-07-26T00:00:13.080Z,4.50
2018-07-26T00:01:16.989Z,4.00
2018-07-26T00:02:20.093Z,4.17
2018-07-26T00:03:23.463Z,3.97
2018-07-26T00:04:26.998Z,3.70
2018-07-26T00:05:31.495Z,4.07
2018-07-26T00:06:34.888Z,4.50
2018-07-26T00:07:38.257Z,4.30
2018-07-26T00:08:41.623Z,4.53
2018-07-26T00:09:44.782Z,4.50
2018-07-26T00:10:49.298Z,4.27
2018-07-26T00:11:52.678Z,4.20
2018-07-26T00:12:56.203Z,4.03
2018-07-26T00:13:59.584Z,4.60
2018-07-26T00:15:02.775Z,4.47
2018-07-26T00:16:07.242Z,4.40
2018-07-26T00:17:10.675Z,4.43
2018-07-26T00:18:14.194Z,4.33
2018-07-26T00:19:17.576Z,4.53
2018-07-26T00:20:22.383Z,4.30
2018-07-26T00:21:27.452Z,4.13
2018-07-26T00:22:30.851Z,4.30
2018-07-26T00:23:34.223Z,4.63
2018-07-26T00:24:37.887Z,4.37
2018-07-26T00:25:42.241Z,4.60
2018-07-26T00:26:45.643Z,4.70
2018-07-26T00:27:49.007Z,4.60
2018-07-26T00:28:52.371Z,4.17
2018-07-26T00:29:55.763Z,4.47
2018-07-26T00:31:00.185Z,4.30
2018-07-26T00:32:03.290Z,4.80
2018-07-26T00:33:06.659Z,4.47
2018-07-26T00:34:10.027Z,4.43
2018-07-26T00:35:14.568Z,4.80
2018-07-26T00:36:19.222Z,4.50
2018-07-26T00:37:22.626Z,4.37
2018-07-26T00:38:26.006Z,4.37
2018-07-26T00:39:29.380Z,4.77
2018-07-26T00:40:33.993Z,4.60
2018-07-26T00:41:37.431Z,4.57
2018-07-26T00:42:40.807Z,4.10
2018-07-26T00:43:44.171Z,4.80
2018-07-26T00:44:47.539Z,4.33
2018-07-26T00:45:51.930Z,4.67
2018-07-26T00:46:55.315Z,4.33
2018-07-26T00:47:58.827Z,4.80
2018-07-26T00:49:02.214Z,5.00
2018-07-26T00:50:06.976Z,4.73
2018-07-26T00:51:11.453Z,4.30
2018-07-26T00:52:14.887Z,4.43
2018-07-26T00:53:18.271Z,4.27
2018-07-26T00:54:21.640Z,4.70
2018-07-26T00:55:26.172Z,4.37
2018-07-26T00:56:30.167Z,4.60
2018-07-26T00:57:33.238Z,4.53
2018-07-26T00:58:36.496Z,4.70
2018-07-26T00:59:39.891Z,4.17
2018-07-26T01:00:44.476Z,4.53
2018-07-26T01:01:47.883Z,4.43
2018-07-26T01:02:51.339Z,4.63
2018-07-26T01:03:54.712Z,4.40
2018-07-26T01:04:58.083Z,4.63
2018-07-26T01:06:02.561Z,4.10
2018-07-26T01:07:05.967Z,4.40
2018-07-26T01:08:09.034Z,4.30
2018-07-26T01:09:13.091Z,4.60
2018-07-26T01:10:18.560Z,4.43
2018-07-26T01:11:23.416Z,4.50
2018-07-26T01:12:26.802Z,4.40
2018-07-26T01:13:30.175Z,4.20
2018-07-26T01:14:33.543Z,4.90
2018-07-26T01:15:38.314Z,4.73
2018-07-26T01:16:41.703Z,4.60
2018-07-26T01:17:45.088Z,4.83
2018-07-26T01:18:48.459Z,4.30
2018-07-26T01:19:51.826Z,4.67
2018-07-26T01:20:56.048Z,4.33
2018-07-26T01:21:59.572Z,4.17
2018-07-26T01:23:02.936Z,4.10
2018-07-26T01:24:06.549Z,4.70
2018-07-26T01:25:11.601Z,4.40
2018-07-26T01:26:16.359Z,4.40
2018-07-26T01:27:19.752Z,4.60
2018-07-26T01:28:23.467Z,4.47
2018-07-26T01:29:26.839Z,4.33
2018-07-26T01:30:31.216Z,4.60
2018-07-26T01:31:34.627Z,4.70
2018-07-26T01:32:38.001Z,4.40
2018-07-26T01:33:41.366Z,4.53
2018-07-26T01:34:44.735Z,4.80
2018-07-26T01:35:49.253Z,4.40
2018-07-26T01:36:53.309Z,4.40
2018-07-26T01:37:56.683Z,4.23
2018-07-26T01:39:00.053Z,5.00
2018-07-26T01:40:04.059Z,4.97
2018-07-26T01:41:08.576Z,4.63
2018-07-26T01:42:11.798Z,4.83
2018-07-26T01:43:40.880Z,4.93
2018-07-26T01:44:44.251Z,4.13
2018-07-26T01:45:48.747Z,4.30
2018-07-26T01:46:52.151Z,4.70
2018-07-26T01:47:55.519Z,4.60
2018-07-26T01:48:58.896Z,4.90
2018-07-26T01:50:02.283Z,4.53
2018-07-26T01:51:06.779Z,4.73
2018-07-26T01:52:10.173Z,4.30
2018-07-26T01:53:13.542Z,4.87
2018-07-26T01:54:17.278Z,4.90
2018-07-26T01:55:21.627Z,4.47
2018-07-26T01:56:26.433Z,4.67
2018-07-26T01:57:29.522Z,4.67
2018-07-26T01:58:32.904Z,4.73
2018-07-26T01:59:36.276Z,4.87
2018-07-26T02:00:40.789Z,4.70
2018-07-26T02:01:44.268Z,4.57
2018-07-26T02:02:47.611Z,4.80
2018-07-26T02:03:50.986Z,4.60
2018-07-26T02:04:54.392Z,5.13
2018-07-26T02:05:59.437Z,4.90
2018-07-26T02:07:02.855Z,4.60
2018-07-26T02:08:06.236Z,4.40
2018-07-26T02:09:10.719Z,4.30
2018-07-26T02:10:15.136Z,5.07
2018-07-26T02:11:19.617Z,4.97
2018-07-26T02:12:23.011Z,4.60
2018-07-26T02:13:26.385Z,5.10
2018-07-26T02:14:35.227Z,4.80
2018-07-26T02:15:39.577Z,5.27
2018-07-26T02:16:43.007Z,4.43
2018-07-26T02:17:46.383Z,4.93
2018-07-26T02:18:49.787Z,4.87
2018-07-26T02:19:53.157Z,5.17
2018-07-26T02:20:57.692Z,4.67
2018-07-26T02:22:01.111Z,4.60
2018-07-26T02:23:04.489Z,5.20
2018-07-26T02:24:07.883Z,5.10
2018-07-26T02:25:12.762Z,4.80
2018-07-26T02:26:17.160Z,5.27
2018-07-26T02:27:20.588Z,5.07
2018-07-26T02:28:23.955Z,4.87
2018-07-26T02:29:27.332Z,4.60
2018-07-26T02:30:31.780Z,5.00
2018-07-26T02:31:35.188Z,5.70
2018-07-26T02:32:38.555Z,5.20
2018-07-26T02:33:41.924Z,4.80
2018-07-26T02:34:45.291Z,4.70
2018-07-26T02:35:49.737Z,5.15
2018-07-26T02:36:53.151Z,4.80
2018-07-26T02:37:56.291Z,5.17
2018-07-26T02:38:59.663Z,5.17
2018-07-26T02:40:03.326Z,5.67
2018-07-26T02:41:07.763Z,4.83
2018-07-26T02:42:11.183Z,4.93
2018-07-26T02:43:14.555Z,4.93
2018-07-26T02:44:17.944Z,5.10
2018-07-26T02:45:22.303Z,4.60
2018-07-26T02:46:26.338Z,4.77
2018-07-26T02:47:29.745Z,4.43
2018-07-26T02:48:33.115Z,4.67
2018-07-26T02:49:36.497Z,4.87
2018-07-26T02:50:40.870Z,5.03
2018-07-26T02:51:44.391Z,5.27
2018-07-26T02:52:47.775Z,5.28
2018-07-26T02:53:51.148Z,5.27
2018-07-26T02:54:54.618Z,4.93
2018-07-26T02:55:59.032Z,4.87
2018-07-26T02:57:02.451Z,5.00
2018-07-26T02:58:05.883Z,4.83
2018-07-26T02:59:09.259Z,5.37
2018-07-26T03:00:13.833Z,5.33
2018-07-26T03:01:18.469Z,4.93
2018-07-26T03:02:21.871Z,5.53
2018-07-26T03:03:25.239Z,5.10
2018-07-26T03:04:28.608Z,5.33
2018-07-26T03:05:33.353Z,5.53
2018-07-26T03:06:36.761Z,4.70
2018-07-26T03:07:40.144Z,4.97
2018-07-26T03:08:43.512Z,5.33
2018-07-26T03:09:46.875Z,5.37
2018-07-26T03:10:51.276Z,5.23
2018-07-26T03:11:54.696Z,5.43
2018-07-26T03:12:58.084Z,5.53
2018-07-26T03:14:01.460Z,4.85
2018-07-26T03:15:06.897Z,5.07
2018-07-26T03:16:11.483Z,4.87
2018-07-26T03:17:15.687Z,5.50
2018-07-26T03:18:19.127Z,5.33
2018-07-26T03:19:22.503Z,5.60
2018-07-26T03:20:26.955Z,5.60
2018-07-26T03:21:30.736Z,5.72
2018-07-26T03:22:34.123Z,5.40
2018-07-26T03:23:37.496Z,5.43
2018-07-26T03:24:40.871Z,5.28
2018-07-26T03:25:45.312Z,5.10
2018-07-26T03:26:48.719Z,5.13
2018-07-26T03:27:52.431Z,5.25
2018-07-26T03:28:55.800Z,5.63
2018-07-26T03:29:59.204Z,5.17
2018-07-26T03:31:03.605Z,5.60
2018-07-26T03:32:07.695Z,5.50
2018-07-26T03:33:11.067Z,5.53
2018-07-26T03:34:14.451Z,5.30
2018-07-26T03:35:18.959Z,5.33
2018-07-26T03:36:23.235Z,14.80
2018-07-26T03:37:26.639Z,15.00
2018-07-26T03:38:30.027Z,14.33
2018-07-26T03:39:33.403Z,17.03
2018-07-26T03:40:37.843Z,8.30
2018-07-26T03:41:41.243Z,6.75
2018-07-26T03:42:44.638Z,6.72
2018-07-26T03:43:48.038Z,7.80
2018-07-26T03:44:51.411Z,6.30
2018-07-26T03:45:55.717Z,5.67
2018-07-26T03:46:59.490Z,7.53
2018-07-26T03:48:02.879Z,7.10
2018-07-26T03:49:06.254Z,5.73
2018-07-26T03:50:10.695Z,5.27
2018-07-26T03:51:14.506Z,6.30
2018-07-26T03:52:17.956Z,5.97
2018-07-26T03:53:21.327Z,6.00
2018-07-26T03:54:24.823Z,6.12
2018-07-26T03:55:30.851Z,5.97
2018-07-26T03:56:34.274Z,5.87
2018-07-26T03:57:37.665Z,5.40
2018-07-26T03:58:41.039Z,5.83
2018-07-26T03:59:44.419Z,5.47
2018-07-26T04:00:48.914Z,5.97
2018-07-26T04:01:52.411Z,5.22
2018-07-26T04:02:55.836Z,6.00
2018-07-26T04:03:59.207Z,6.10
2018-07-26T04:05:02.638Z,5.90
2018-07-26T04:06:07.099Z,6.10
2018-07-26T04:07:10.507Z,5.70
2018-07-26T04:08:13.895Z,5.95
2018-07-26T04:09:17.305Z,5.80
2018-07-26T04:10:20.969Z,6.28
2018-07-26T04:11:26.080Z,5.80
2018-07-26T04:12:29.503Z,6.03
2018-07-26T04:13:32.638Z,6.12
2018-07-26T04:14:36.011Z,6.05
2018-07-26T04:15:41.124Z,5.50
2018-07-26T04:16:44.527Z,6.50
2018-07-26T04:17:52.427Z,6.40
2018-07-26T04:18:55.800Z,7.87
2018-07-26T04:19:59.229Z,6.10
2018-07-26T04:21:03.638Z,6.50
2018-07-26T04:22:07.059Z,6.08
2018-07-26T04:23:10.459Z,5.72
2018-07-26T04:24:13.856Z,5.97
2018-07-26T04:25:18.251Z,6.55
2018-07-26T04:26:22.689Z,6.07
2018-07-26T04:27:26.075Z,5.92
2018-07-26T04:28:29.467Z,6.30
2018-07-26T04:29:32.847Z,6.90
2018-07-26T04:30:37.265Z,6.60
2018-07-26T04:31:40.671Z,6.10
2018-07-26T04:32:43.759Z,6.50
2018-07-26T04:33:47.306Z,6.08
2018-07-26T04:34:50.692Z,6.00
2018-07-26T04:35:55.101Z,6.12
2018-07-26T04:36:58.515Z,6.35
2018-07-26T04:38:01.923Z,6.07
2018-07-26T04:39:07.979Z,5.97
2018-07-26T04:40:13.363Z,6.30
2018-07-26T04:41:17.154Z,6.57
2018-07-26T04:42:20.258Z,6.50
2018-07-26T04:43:23.647Z,6.57
2018-07-26T04:44:26.718Z,6.50
2018-07-26T04:45:31.814Z,6.37
2018-07-26T04:46:35.216Z,6.53
2018-07-26T04:47:38.693Z,6.95
2018-07-26T04:48:42.079Z,6.50
2018-07-26T04:49:45.507Z,6.75
2018-07-26T04:50:49.205Z,6.30
2018-07-26T04:51:52.599Z,6.80
2018-07-26T04:52:55.738Z,6.42
2018-07-26T04:53:59.091Z,6.80
2018-07-26T04:55:03.029Z,6.50
2018-07-26T04:56:07.701Z,7.00
2018-07-26T04:57:11.168Z,6.80
2018-07-26T04:58:14.576Z,6.67
2018-07-26T04:59:17.951Z,6.72
2018-07-26T05:00:23.032Z,7.22
2018-07-26T05:01:27.371Z,7.57
2018-07-26T05:02:30.791Z,6.50
2018-07-26T05:03:34.179Z,6.37
2018-07-26T05:04:37.555Z,6.77
2018-07-26T05:05:41.934Z,7.03
2018-07-26T05:06:45.335Z,7.05
2018-07-26T05:07:48.703Z,7.13
2018-07-26T05:08:52.099Z,7.10
2018-07-26T05:09:55.475Z,7.30
2018-07-26T05:10:59.915Z,7.23
2018-07-26T05:12:03.328Z,7.70
2018-07-26T05:13:06.712Z,7.43
2018-07-26T05:14:10.095Z,7.27
2018-07-26T05:15:14.430Z,7.43
2018-07-26T05:16:18.962Z,7.53
2018-07-26T05:17:22.367Z,7.30
2018-07-26T05:18:25.777Z,7.70
2018-07-26T05:19:29.143Z,7.57
2018-07-26T05:20:33.589Z,7.93
2018-07-26T05:21:37.003Z,8.20
2018-07-26T05:22:40.398Z,7.47
2018-07-26T05:23:43.775Z,8.20
2018-07-26T05:24:47.155Z,8.00
2018-07-26T05:25:51.552Z,7.83
2018-07-26T05:26:54.943Z,7.77
2018-07-26T05:27:58.319Z,7.43
2018-07-26T05:29:01.707Z,8.27
2018-07-26T05:30:06.618Z,7.33
2018-07-26T05:31:11.362Z,7.70
2018-07-26T05:32:14.751Z,7.70
2018-07-26T05:33:18.141Z,7.73
2018-07-26T05:34:21.511Z,8.47
2018-07-26T05:35:25.967Z,7.87
2018-07-26T05:36:30.019Z,7.60
2018-07-26T05:37:33.413Z,8.03
2018-07-26T05:38:36.791Z,7.97
2018-07-26T05:39:40.179Z,8.07
2018-07-26T05:40:44.866Z,7.73
2018-07-26T05:41:48.255Z,8.53
2018-07-26T05:42:51.640Z,7.97
2018-07-26T05:43:55.084Z,8.57
2018-07-26T05:44:58.467Z,8.47
2018-07-26T05:46:03.090Z,9.17
2018-07-26T05:47:07.000Z,8.57
2018-07-26T05:48:10.375Z,7.87
2018-07-26T05:49:13.466Z,8.70
2018-07-26T05:50:18.182Z,8.33
2018-07-26T05:51:22.571Z,8.17
2018-07-26T05:52:25.666Z,8.80
2018-07-26T05:53:29.095Z,8.47
2018-07-26T05:54:32.452Z,8.10
2018-07-26T05:55:36.981Z,8.30
2018-07-26T05:56:40.391Z,7.77
2018-07-26T05:57:43.767Z,7.50
2018-07-26T05:58:47.267Z,7.50
2018-07-26T05:59:50.659Z,7.53
2018-07-26T06:00:55.748Z,7.13
2018-07-26T06:01:59.155Z,7.30
2018-07-26T06:03:02.520Z,7.20
2018-07-26T06:04:06.621Z,8.07
2018-07-26T06:05:11.216Z,6.37
2018-07-26T06:06:15.692Z,6.00
2018-07-26T06:07:19.079Z,6.17
2018-07-26T06:08:22.459Z,6.40
2018-07-26T06:09:25.843Z,6.13
2018-07-26T06:10:29.691Z,5.80
2018-07-26T06:11:33.095Z,6.00
2018-07-26T06:12:36.467Z,6.00
2018-07-26T06:13:39.841Z,5.23
2018-07-26T06:14:43.259Z,5.00
2018-07-26T06:15:47.784Z,5.00
2018-07-26T06:16:51.175Z,5.20
2018-07-26T06:17:54.543Z,5.40
2018-07-26T06:18:57.935Z,5.10
2018-07-26T06:20:01.303Z,4.60
2018-07-26T06:21:05.701Z,4.83
2018-07-26T06:22:09.099Z,4.70
2018-07-26T06:23:12.491Z,5.03
2018-07-26T06:24:15.963Z,4.77
2018-07-26T06:25:20.477Z,4.70
2018-07-26T06:26:24.529Z,4.87
2018-07-26T06:27:27.932Z,5.40
2018-07-26T06:28:31.002Z,4.90
2018-07-26T06:29:34.387Z,5.30
2018-07-26T06:30:38.716Z,4.80
2018-07-26T06:31:42.116Z,5.00
2018-07-26T06:32:45.493Z,5.15
2018-07-26T06:33:48.869Z,4.90
2018-07-26T06:34:52.260Z,4.90
2018-07-26T06:35:57.401Z,4.57
2018-07-26T06:37:00.811Z,5.13
2018-07-26T06:38:04.184Z,4.90
2018-07-26T06:39:10.559Z,4.57
2018-07-26T06:40:14.954Z,4.40
2018-07-26T06:41:19.579Z,4.10
2018-07-26T06:42:22.992Z,4.33
2018-07-26T06:43:26.359Z,4.77
2018-07-26T06:44:29.743Z,4.37
2018-07-26T06:45:34.592Z,4.30
2018-07-26T06:46:38.143Z,4.00
2018-07-26T06:47:41.514Z,3.97
2018-07-26T06:48:44.885Z,4.33
2018-07-26T06:49:48.276Z,4.33
2018-07-26T06:50:53.385Z,3.90
2018-07-26T06:51:56.779Z,4.30
2018-07-26T06:53:00.171Z,4.57
2018-07-26T06:54:03.544Z,4.30
2018-07-26T06:55:08.094Z,4.10
2018-07-26T06:56:12.699Z,3.80
2018-07-26T06:57:16.107Z,3.53
2018-07-26T06:58:19.471Z,3.87
2018-07-26T06:59:22.855Z,3.87
2018-07-26T07:00:27.278Z,3.47
2018-07-26T07:01:30.831Z,3.43
2018-07-26T07:02:34.203Z,3.10
2018-07-26T07:03:37.591Z,3.30
2018-07-26T07:04:40.974Z,3.37
2018-07-26T07:05:44.836Z,3.73
2018-07-26T07:06:48.243Z,3.37
2018-07-26T07:07:51.635Z,3.23
2018-07-26T07:08:55.022Z,3.23
2018-07-26T07:09:58.461Z,3.50
2018-07-26T07:11:02.999Z,3.27
2018-07-26T07:12:06.411Z,3.50
2018-07-26T07:13:09.796Z,3.20
2018-07-26T07:14:12.886Z,3.10
2018-07-26T07:15:16.830Z,3.37
2018-07-26T07:16:21.224Z,3.20
2018-07-26T07:17:24.623Z,3.23
2018-07-26T07:18:27.999Z,3.43
2018-07-26T07:19:31.399Z,3.33
2018-07-26T07:20:35.991Z,3.20
2018-07-26T07:21:39.026Z,3.27
2018-07-26T07:22:42.206Z,2.90
2018-07-26T07:23:45.771Z,2.90
2018-07-26T07:24:49.156Z,3.20
2018-07-26T07:25:53.518Z,2.87
2018-07-26T07:26:56.914Z,3.07
2018-07-26T07:28:00.279Z,3.20
2018-07-26T07:29:03.695Z,3.50
2018-07-26T07:30:10.788Z,3.30
2018-07-26T07:31:14.596Z,3.40
2018-07-26T07:32:17.979Z,3.43
2018-07-26T07:33:21.364Z,3.60
2018-07-26T07:34:24.741Z,3.27
2018-07-26T07:35:30.021Z,3.57
2018-07-26T07:36:33.450Z,3.23
2018-07-26T07:37:37.557Z,2.77
2018-07-26T07:38:41.043Z,3.17
2018-07-26T07:39:44.555Z,3.70
2018-07-26T07:40:49.032Z,3.20
2018-07-26T07:41:52.447Z,3.57
2018-07-26T07:42:55.826Z,3.60
2018-07-26T07:43:59.191Z,3.40
2018-07-26T07:45:02.691Z,3.10
2018-07-26T07:46:07.077Z,3.17
2018-07-26T07:47:10.495Z,3.27
2018-07-26T07:48:13.935Z,3.60
2018-07-26T07:49:17.307Z,3.57
2018-07-26T07:50:22.012Z,3.67
2018-07-26T07:51:26.514Z,3.47
2018-07-26T07:52:29.951Z,3.13
2018-07-26T07:53:33.315Z,3.80
2018-07-26T07:54:36.683Z,3.53
2018-07-26T07:55:41.235Z,3.10
2018-07-26T07:56:44.623Z,3.30
2018-07-26T07:57:47.998Z,3.50
2018-07-26T07:58:51.403Z,3.53
2018-07-26T07:59:54.861Z,3.90
2018-07-26T08:00:59.441Z,4.60
2018-07-26T08:02:02.863Z,3.37
2018-07-26T08:03:06.503Z,3.57
2018-07-26T08:04:09.871Z,3.97
2018-07-26T08:05:14.965Z,4.50
2018-07-26T08:06:19.913Z,3.80
2018-07-26T08:07:23.299Z,2.73
2018-07-26T08:08:26.667Z,3.80
2018-07-26T08:09:30.039Z,3.43
2018-07-26T08:10:34.636Z,2.80
2018-07-26T08:11:38.067Z,3.50
2018-07-26T08:12:41.494Z,3.13
2018-07-26T08:13:44.823Z,3.77
2018-07-26T08:14:48.195Z,4.57
2018-07-26T08:15:52.073Z,5.37
2018-07-26T08:16:55.516Z,10.53
2018-07-26T08:17:58.896Z,8.07
2018-07-26T08:19:02.266Z,5.97
2018-07-26T08:20:06.875Z,4.33
2018-07-26T08:21:11.460Z,8.97
2018-07-26T08:22:14.872Z,7.87
2018-07-26T08:23:18.256Z,4.77
2018-07-26T08:24:22.693Z,4.87
2018-07-26T08:25:27.104Z,4.60
2018-07-26T08:26:30.681Z,5.30
2018-07-26T08:27:34.047Z,4.70
2018-07-26T08:28:37.415Z,4.10
2018-07-26T08:29:40.812Z,3.27
2018-07-26T08:30:45.392Z,3.63
2018-07-26T08:31:48.795Z,4.80
2018-07-26T08:32:52.163Z,8.00
2018-07-26T08:33:55.579Z,8.53
2018-07-26T08:34:59.335Z,8.10
2018-07-26T08:36:03.892Z,6.90
2018-07-26T08:37:07.283Z,4.87
2018-07-26T08:38:10.442Z,4.27
2018-07-26T08:39:13.851Z,3.27
2018-07-26T08:40:18.134Z,3.50
2018-07-26T08:41:22.687Z,3.87
2018-07-26T08:42:26.063Z,3.40
2018-07-26T08:43:29.167Z,4.00
2018-07-26T08:44:32.540Z,5.47
2018-07-26T08:45:36.994Z,5.10
2018-07-26T08:46:40.395Z,4.77
2018-07-26T08:47:44.083Z,5.83
2018-07-26T08:48:47.462Z,5.17
2018-07-26T08:49:50.840Z,5.43
2018-07-26T08:50:55.317Z,3.70
2018-07-26T08:51:58.716Z,5.60
2018-07-26T08:53:02.084Z,5.00
2018-07-26T08:54:05.880Z,3.70
2018-07-26T08:55:10.934Z,5.43
2018-07-26T08:56:15.514Z,4.27
2018-07-26T08:57:18.911Z,4.40
2018-07-26T08:58:22.283Z,5.23
2018-07-26T08:59:25.667Z,3.57
2018-07-26T09:00:30.057Z,3.33
2018-07-26T09:01:33.507Z,7.03
2018-07-26T09:02:36.948Z,9.13
2018-07-26T09:03:40.267Z,12.87
2018-07-26T09:04:43.633Z,8.40
2018-07-26T09:05:48.068Z,9.37
2018-07-26T09:06:51.491Z,7.27
2018-07-26T09:07:54.875Z,4.80
2018-07-26T09:08:58.243Z,3.80
2018-07-26T09:10:01.625Z,3.80
2018-07-26T09:11:06.165Z,4.93
2018-07-26T09:12:09.555Z,5.17
2018-07-26T09:13:12.931Z,3.63
2018-07-26T09:14:16.291Z,3.67
2018-07-26T09:15:20.609Z,4.77
2018-07-26T09:16:24.257Z,4.13
2018-07-26T09:17:27.658Z,9.73
2018-07-26T09:18:31.063Z,6.90
2018-07-26T09:19:34.466Z,6.07
2018-07-26T09:20:38.847Z,4.40
2018-07-26T09:21:42.419Z,4.40
2018-07-26T09:22:45.781Z,3.20
2018-07-26T09:23:49.147Z,3.83
2018-07-26T09:24:52.525Z,4.00
2018-07-26T09:25:56.997Z,4.20
2018-07-26T09:27:00.399Z,3.80
2018-07-26T09:28:03.771Z,5.47
2018-07-26T09:29:07.154Z,3.40
2018-07-26T09:30:12.285Z,3.27
2018-07-26T09:31:16.895Z,3.00
2018-07-26T09:32:20.341Z,4.00
2018-07-26T09:33:23.751Z,5.23
2018-07-26T09:34:27.119Z,5.83
2018-07-26T09:35:32.108Z,5.30
2018-07-26T09:36:35.514Z,5.10
2018-07-26T09:37:38.586Z,5.03
2018-07-26T09:38:41.951Z,5.20
2018-07-26T09:39:45.319Z,3.70
2018-07-26T09:40:49.982Z,3.67
2018-07-26T09:41:53.411Z,6.30
2018-07-26T09:42:56.867Z,4.13
2018-07-26T09:43:59.934Z,4.10
2018-07-26T09:45:03.510Z,4.20
2018-07-26T09:46:08.304Z,5.90
2018-07-26T09:47:11.723Z,4.53
2018-07-26T09:48:15.107Z,4.40
2018-07-26T09:49:18.487Z,3.73
2018-07-26T09:50:22.772Z,3.97
2018-07-26T09:51:27.265Z,3.23
2018-07-26T09:52:30.695Z,3.63
2018-07-26T09:53:34.064Z,3.27
2018-07-26T09:54:37.435Z,3.00
2018-07-26T09:55:41.859Z,3.10
2018-07-26T09:56:45.295Z,2.90
2018-07-26T09:57:48.667Z,3.63
2018-07-26T09:58:51.731Z,3.63
2018-07-26T09:59:55.101Z,3.20
2018-07-26T10:01:04.561Z,4.87
2018-07-26T10:02:07.983Z,2.67
2018-07-26T10:03:11.352Z,2.70
2018-07-26T10:04:14.727Z,4.33
2018-07-26T10:05:19.105Z,3.93
2018-07-26T10:06:23.218Z,3.20
2018-07-26T10:07:26.623Z,3.80
2018-07-26T10:08:30.009Z,3.23
2018-07-26T10:09:33.379Z,2.90
2018-07-26T10:10:37.963Z,4.70
2018-07-26T10:11:41.347Z,4.70
2018-07-26T10:12:44.729Z,2.73
2018-07-26T10:13:48.118Z,4.53
2018-07-26T10:14:51.487Z,3.43
2018-07-26T10:15:55.731Z,2.97
2018-07-26T10:16:59.163Z,2.90
2018-07-26T10:18:02.540Z,2.90
2018-07-26T10:19:05.933Z,3.37
2018-07-26T10:20:10.427Z,5.27
2018-07-26T10:21:14.954Z,2.73
2018-07-26T10:22:18.359Z,3.70
2018-07-26T10:23:21.731Z,3.10
2018-07-26T10:24:25.103Z,6.03
2018-07-26T10:25:29.581Z,6.23
2018-07-26T10:26:33.010Z,3.37
2018-07-26T10:27:36.399Z,3.93
2018-07-26T10:28:39.781Z,6.17
2018-07-26T10:29:43.155Z,3.97
2018-07-26T10:30:47.748Z,5.40
2018-07-26T10:31:51.781Z,4.17
2018-07-26T10:32:55.172Z,7.13
2018-07-26T10:33:58.546Z,5.43
2018-07-26T10:35:01.911Z,3.00
2018-07-26T10:36:06.387Z,3.17
2018-07-26T10:37:09.779Z,2.97
2018-07-26T10:38:13.175Z,3.10
2018-07-26T10:39:16.543Z,3.50
2018-07-26T10:40:20.931Z,4.00
2018-07-26T10:41:25.225Z,3.10
2018-07-26T10:42:28.731Z,5.23
2018-07-26T10:43:32.131Z,3.33
2018-07-26T10:44:35.565Z,6.43
2018-07-26T10:45:39.881Z,2.70
2018-07-26T10:46:43.291Z,3.07
2018-07-26T10:47:46.660Z,2.37
2018-07-26T10:48:50.076Z,2.70
2018-07-26T10:49:53.487Z,3.90
2018-07-26T10:50:58.127Z,3.33
2018-07-26T10:52:01.528Z,2.40
2018-07-26T10:53:05.043Z,2.53
2018-07-26T10:54:08.467Z,2.43
2018-07-26T10:55:12.750Z,3.93
2018-07-26T10:56:17.260Z,3.80
2018-07-26T10:57:20.663Z,5.83
2018-07-26T10:58:24.035Z,4.10
2018-07-26T10:59:27.463Z,3.50
2018-07-26T11:00:32.038Z,2.93
2018-07-26T11:01:35.448Z,3.23
2018-07-26T11:02:39.103Z,4.43
2018-07-26T11:03:42.516Z,4.63
2018-07-26T11:04:45.879Z,3.80
2018-07-26T11:05:50.310Z,3.20
2018-07-26T11:06:53.725Z,5.07
2018-07-26T11:07:56.799Z,5.37
2018-07-26T11:09:00.183Z,3.30
2018-07-26T11:10:05.198Z,2.83
2018-07-26T11:11:09.695Z,3.33
2018-07-26T11:12:13.075Z,2.83
2018-07-26T11:13:16.447Z,4.80
2018-07-26T11:14:19.832Z,3.30
2018-07-26T11:15:30.842Z,5.47
2018-07-26T11:16:33.922Z,2.87
2018-07-26T11:17:37.299Z,4.57
2018-07-26T11:18:40.663Z,2.70
2018-07-26T11:19:44.034Z,2.60
2018-07-26T11:20:48.477Z,3.27
2018-07-26T11:21:51.887Z,3.60
2018-07-26T11:22:55.267Z,3.83
2018-07-26T11:23:58.334Z,3.03
2018-07-26T11:25:01.719Z,5.10
2018-07-26T11:26:05.867Z,3.37
2018-07-26T11:27:09.286Z,2.87
2018-07-26T11:28:12.655Z,3.30
2018-07-26T11:29:16.035Z,4.43
2018-07-26T11:30:20.395Z,3.00
2018-07-26T11:31:23.831Z,3.47
2018-07-26T11:32:27.246Z,3.80
2018-07-26T11:33:30.607Z,3.60
2018-07-26T11:34:34.047Z,3.27
2018-07-26T11:35:37.681Z,3.73
2018-07-26T11:36:41.167Z,3.67
2018-07-26T11:37:44.536Z,4.53
2018-07-26T11:38:47.921Z,3.67
2018-07-26T11:39:51.287Z,3.23
2018-07-26T11:40:55.494Z,4.43
2018-07-26T11:41:58.898Z,3.60
2018-07-26T11:43:02.263Z,4.00
2018-07-26T11:44:06.135Z,2.93
2018-07-26T11:45:11.086Z,3.00
2018-07-26T11:46:15.662Z,2.57
2018-07-26T11:47:19.071Z,3.00
2018-07-26T11:48:22.433Z,2.67
2018-07-26T11:49:25.811Z,3.30
2018-07-26T11:50:30.350Z,2.60
2018-07-26T11:51:33.739Z,3.00
2018-07-26T11:52:37.166Z,3.40
2018-07-26T11:53:40.511Z,2.60
2018-07-26T11:54:43.883Z,8.87
2018-07-26T11:55:48.264Z,4.53
2018-07-26T11:56:51.677Z,4.00
2018-07-26T11:57:55.075Z,3.03
2018-07-26T11:58:58.462Z,4.13
2018-07-26T12:00:02.340Z,4.00
2018-07-26T12:01:06.294Z,3.27
2018-07-26T12:02:10.295Z,2.70
2018-07-26T12:03:13.703Z,2.93
2018-07-26T12:04:17.075Z,8.53
2018-07-26T12:05:21.438Z,5.90
2018-07-26T12:06:25.491Z,3.23
2018-07-26T12:07:28.887Z,2.80
2018-07-26T12:08:32.292Z,3.27
2018-07-26T12:09:35.671Z,6.07
2018-07-26T12:10:39.994Z,2.53
2018-07-26T12:11:43.387Z,2.97
2018-07-26T12:12:46.755Z,2.77
2018-07-26T12:13:50.163Z,2.23
2018-07-26T12:14:53.539Z,2.87
2018-07-26T12:15:58.000Z,2.23
2018-07-26T12:17:01.392Z,2.60
2018-07-26T12:18:04.766Z,2.80
2018-07-26T12:19:08.176Z,2.53
2018-07-26T12:20:12.602Z,3.07
2018-07-26T12:21:16.971Z,3.03
2018-07-26T12:22:20.352Z,3.13
2018-07-26T12:23:23.719Z,3.10
2018-07-26T12:24:27.125Z,3.47
2018-07-26T12:25:31.516Z,2.73
2018-07-26T12:26:34.915Z,2.30
2018-07-26T12:27:38.287Z,3.50
2018-07-26T12:28:41.656Z,3.63
2018-07-26T12:29:45.064Z,3.60
2018-07-26T12:30:49.545Z,2.50
2018-07-26T12:31:52.955Z,2.77
2018-07-26T12:32:56.327Z,3.10
2018-07-26T12:33:59.719Z,2.73
2018-07-26T12:35:03.155Z,1.90
2018-07-26T12:36:07.773Z,2.50
2018-07-26T12:37:11.199Z,2.63
2018-07-26T12:38:14.563Z,3.27
2018-07-26T12:39:17.939Z,2.63
2018-07-26T12:40:22.421Z,2.73
2018-07-26T12:41:26.422Z,2.87
2018-07-26T12:42:29.899Z,4.87
2018-07-26T12:43:33.279Z,3.83
2018-07-26T12:44:36.655Z,6.37
2018-07-26T12:45:42.007Z,6.67
2018-07-26T12:46:45.393Z,5.47
2018-07-26T12:47:48.783Z,6.47
2018-07-26T12:48:52.151Z,2.83
2018-07-26T12:49:55.527Z,4.27
2018-07-26T12:51:00.319Z,5.03
2018-07-26T12:52:03.719Z,3.27
2018-07-26T12:53:07.088Z,3.20
2018-07-26T12:54:10.483Z,6.87
2018-07-26T12:55:15.774Z,4.43
2018-07-26T12:56:20.314Z,4.10
2018-07-26T12:57:23.414Z,7.23
2018-07-26T12:58:26.787Z,2.77
2018-07-26T12:59:30.157Z,2.30
2018-07-26T13:00:34.848Z,3.63
2018-07-26T13:01:38.296Z,3.13
2018-07-26T13:02:41.651Z,3.70
2018-07-26T13:03:45.012Z,3.03
2018-07-26T13:04:48.387Z,2.90
2018-07-26T13:05:52.911Z,2.70
2018-07-26T13:06:56.067Z,2.50
2018-07-26T13:07:59.436Z,3.00
2018-07-26T13:09:02.575Z,2.13
2018-07-26T13:10:06.980Z,3.53
2018-07-26T13:11:10.910Z,2.70
2018-07-26T13:12:14.374Z,4.27
2018-07-26T13:13:17.726Z,2.80
2018-07-26T13:14:21.252Z,2.10
2018-07-26T13:15:25.700Z,2.43
2018-07-26T13:16:29.703Z,2.50
2018-07-26T13:17:33.100Z,2.80
2018-07-26T13:18:36.472Z,2.40
2018-07-26T13:19:39.855Z,2.67
2018-07-26T13:20:45.015Z,2.40
2018-07-26T13:21:48.399Z,2.40
2018-07-26T13:22:51.795Z,2.60
2018-07-26T13:23:55.167Z,2.60
2018-07-26T13:24:58.584Z,2.40
2018-07-26T13:26:03.764Z,2.73
2018-07-26T13:27:07.397Z,2.67
2018-07-26T13:28:10.802Z,2.27
2018-07-26T13:29:14.200Z,2.60
2018-07-26T13:30:18.536Z,2.93
2018-07-26T13:31:22.979Z,2.10
2018-07-26T13:32:26.386Z,2.53
2018-07-26T13:33:29.811Z,2.40
2018-07-26T13:34:32.878Z,2.30
2018-07-26T13:35:36.709Z,2.20
2018-07-26T13:36:40.136Z,1.90
2018-07-26T13:37:43.523Z,2.23
2018-07-26T13:38:46.911Z,2.10
2018-07-26T13:39:50.341Z,2.10
2018-07-26T13:40:54.613Z,2.40
2018-07-26T13:41:57.722Z,2.60
2018-07-26T13:43:01.108Z,2.43
2018-07-26T13:44:04.515Z,2.10
2018-07-26T13:45:09.637Z,2.20
2018-07-26T13:46:14.215Z,2.10
2018-07-26T13:47:17.651Z,2.13
2018-07-26T13:48:21.019Z,2.20
2018-07-26T13:49:24.419Z,2.40
2018-07-26T13:50:28.766Z,2.17
2018-07-26T13:51:32.191Z,1.93
2018-07-26T13:52:35.561Z,2.00
2018-07-26T13:53:38.634Z,2.00
2018-07-26T13:54:42.020Z,2.17
2018-07-26T13:55:46.416Z,2.17
2018-07-26T13:56:49.819Z,2.10
2018-07-26T13:57:52.986Z,2.00
2018-07-26T13:58:56.375Z,2.00
2018-07-26T13:59:59.772Z,2.17
2018-07-26T14:01:03.655Z,2.40
2018-07-26T14:02:07.051Z,2.00
2018-07-26T14:03:10.435Z,2.00
2018-07-26T14:04:13.815Z,2.10
2018-07-26T14:05:18.265Z,2.47
2018-07-26T14:06:22.460Z,2.30
2018-07-26T14:07:25.864Z,2.40
2018-07-26T14:08:29.251Z,2.30